createdAt,value
2018-09-20T00:01:48.847Z,99.90
2018-09-20T00:04:24.359Z,99.90
2018-09-20T00:06:55.779Z,99.90
2018-09-20T00:09:25.616Z,99.90
2018-09-20T00:11:55.539Z,99.90
2018-09-20T00:14:25.379Z,99.90
2018-09-20T00:16:56.174Z,99.90
2018-09-20T00:19:26.010Z,99.90
2018-09-20T00:22:00.607Z,99.90
2018-09-20T00:24:41.203Z,99.90
2018-09-20T00:27:15.143Z,99.90
2018-09-20T00:29:49.731Z,99.90
2018-09-20T00:32:19.639Z,99.90
2018-09-20T00:34:50.467Z,99.90
2018-09-20T00:37:25.623Z,99.90
2018-09-20T00:39:56.427Z,99.90
2018-09-20T00:42:26.259Z,99.90
2018-09-20T00:45:04.224Z,99.90
2018-09-20T00:47:35.999Z,99.90
2018-09-20T00:50:06.070Z,99.90
2018-09-20T00:52:35.943Z,99.90
2018-09-20T00:55:09.978Z,99.90
2018-09-20T00:57:47.398Z,99.90
2018-09-20T01:00:23.179Z,99.90
2018-09-20T01:02:56.182Z,99.90
2018-09-20T01:05:26.010Z,99.90
2018-09-20T01:07:55.890Z,99.90
2018-09-20T01:10:25.772Z,99.90
2018-09-20T01:12:56.646Z,99.90
2018-09-20T01:15:26.434Z,99.90
2018-09-20T01:18:00.975Z,99.90
2018-09-20T01:20:40.576Z,99.90
2018-09-20T01:23:10.443Z,99.90
2018-09-20T01:25:40.243Z,99.90
2018-09-20T01:28:10.099Z,99.90
2018-09-20T01:30:47.595Z,99.90
2018-09-20T01:33:23.755Z,99.90
2018-09-20T01:36:06.221Z,99.90
2018-09-20T01:38:36.076Z,99.90
2018-09-20T01:41:09.115Z,99.90
2018-09-20T01:43:44.619Z,99.90
2018-09-20T01:46:20.119Z,99.90
2018-09-20T01:49:03.230Z,99.90
2018-09-20T01:51:38.114Z,99.90
2018-09-20T01:54:15.506Z,99.90
2018-09-20T01:56:50.107Z,99.90
2018-09-20T01:59:25.915Z,99.90
2018-09-20T02:02:00.802Z,99.90
2018-09-20T02:04:33.742Z,99.90
2018-09-20T02:07:04.583Z,99.90
2018-09-20T02:09:42.211Z,99.90
2018-09-20T02:12:12.083Z,99.90
2018-09-20T02:14:41.888Z,99.90
2018-09-20T02:17:11.755Z,99.90
2018-09-20T02:19:43.611Z,99.90
2018-09-20T02:22:15.508Z,99.90
2018-09-20T02:24:45.354Z,99.90
2018-09-20T02:27:15.219Z,99.90
2018-09-20T02:29:45.086Z,99.90
2018-09-20T02:32:15.903Z,99.90
2018-09-20T02:34:46.743Z,99.90
2018-09-20T02:37:22.419Z,99.90
2018-09-20T02:39:52.310Z,99.90
2018-09-20T02:42:26.312Z,99.90
2018-09-20T02:45:06.821Z,99.90
2018-09-20T02:47:41.307Z,99.90
2018-09-20T02:50:16.675Z,99.90
2018-09-20T02:52:47.455Z,99.90
2018-09-20T02:55:17.283Z,99.90
2018-09-20T02:57:48.199Z,99.90
2018-09-20T03:00:22.359Z,99.90
2018-09-20T03:02:57.716Z,99.90
2018-09-20T03:05:27.587Z,99.90
2018-09-20T03:07:57.402Z,99.90
2018-09-20T03:10:27.199Z,99.90
2018-09-20T03:12:58.047Z,99.90
2018-09-20T03:15:31.058Z,99.90
2018-09-20T03:18:04.950Z,99.90
2018-09-20T03:20:50.975Z,99.90
2018-09-20T03:23:25.071Z,99.90
2018-09-20T03:26:12.811Z,99.90
2018-09-20T03:28:52.382Z,99.90
2018-09-20T03:31:32.914Z,99.90
2018-09-20T03:34:19.655Z,99.90
2018-09-20T03:36:49.518Z,99.90
2018-09-20T03:39:22.806Z,99.90
2018-09-20T03:41:59.322Z,99.90
2018-09-20T03:44:31.198Z,99.90
2018-09-20T03:47:08.974Z,99.90
2018-09-20T03:49:38.894Z,99.90
2018-09-20T03:52:15.390Z,99.90
2018-09-20T03:54:59.814Z,99.90
2018-09-20T03:57:32.155Z,99.90
2018-09-20T04:00:05.374Z,99.90
2018-09-20T04:02:54.154Z,99.90
2018-09-20T04:05:34.490Z,99.90
2018-09-20T04:08:10.743Z,99.90
2018-09-20T04:10:40.742Z,99.90
2018-09-20T04:13:11.598Z,99.90
2018-09-20T04:15:47.010Z,99.90
2018-09-20T04:18:22.574Z,99.90
2018-09-20T04:21:08.690Z,99.90
2018-09-20T04:23:38.686Z,99.90
2018-09-20T04:26:10.525Z,99.90
2018-09-20T04:28:45.571Z,99.90
2018-09-20T04:31:17.402Z,99.90
2018-09-20T04:33:47.339Z,99.90
2018-09-20T04:36:20.816Z,99.90
2018-09-20T04:39:09.138Z,99.90
2018-09-20T04:41:38.966Z,99.90
2018-09-20T04:44:18.957Z,99.90
2018-09-20T04:46:50.246Z,99.90
2018-09-20T04:49:22.135Z,99.90
2018-09-20T04:51:53.506Z,99.90
2018-09-20T04:54:23.403Z,99.90
2018-09-20T04:56:58.870Z,99.90
2018-09-20T04:59:36.610Z,99.90
2018-09-20T05:02:10.551Z,99.90
2018-09-20T05:04:59.279Z,99.90
2018-09-20T05:07:29.084Z,99.90
2018-09-20T05:09:58.919Z,99.90
2018-09-20T05:12:49.075Z,99.90
2018-09-20T05:15:36.366Z,99.90
2018-09-20T05:18:09.092Z,99.90
2018-09-20T05:20:46.671Z,99.90
2018-09-20T05:23:18.450Z,99.90
2018-09-20T05:28:59.489Z,99.90
2018-09-20T05:31:55.414Z,99.90
2018-09-20T05:34:27.234Z,99.90
2018-09-20T05:37:07.143Z,99.90
2018-09-20T05:39:53.555Z,99.90
2018-09-20T05:42:28.322Z,99.90
2018-09-20T05:44:59.127Z,99.90
2018-09-20T05:47:40.997Z,99.90
2018-09-20T05:50:25.434Z,99.90
2018-09-20T05:53:00.527Z,99.90
2018-09-20T05:55:38.246Z,99.90
2018-09-20T05:58:26.722Z,99.90
2018-09-20T06:01:03.174Z,99.90
2018-09-20T06:06:34.573Z,99.90
2018-09-20T06:09:08.390Z,99.90
2018-09-20T06:11:40.168Z,99.90
2018-09-20T06:14:11.007Z,99.90
2018-09-20T06:16:40.834Z,99.90
2018-09-20T06:19:10.623Z,99.90
2018-09-20T06:21:44.707Z,99.90
2018-09-20T06:24:26.182Z,99.90
2018-09-20T06:27:20.106Z,99.90
2018-09-20T06:29:55.590Z,99.90
2018-09-20T06:32:26.579Z,99.90
2018-09-20T06:35:01.295Z,99.90
2018-09-20T06:37:47.288Z,99.90
2018-09-20T06:40:22.495Z,99.90
2018-09-20T06:43:21.098Z,99.90
2018-09-20T06:45:56.346Z,99.90
2018-09-20T06:48:27.176Z,99.90
2018-09-20T06:51:11.398Z,99.90
2018-09-20T06:53:54.218Z,99.90
2018-09-20T06:56:34.781Z,99.90
2018-09-20T06:59:06.559Z,99.90
2018-09-20T07:01:40.171Z,99.90
2018-09-20T07:04:09.959Z,99.90
2018-09-20T07:06:45.731Z,99.90
2018-09-20T07:09:23.647Z,99.90
2018-09-20T07:11:55.431Z,99.90
2018-09-20T07:14:27.175Z,99.90
2018-09-20T07:17:00.771Z,99.90
2018-09-20T07:19:40.575Z,99.90
2018-09-20T07:22:10.370Z,99.90
2018-09-20T07:24:52.475Z,99.90
2018-09-20T07:27:27.075Z,99.90
2018-09-20T07:29:56.823Z,99.90
2018-09-20T07:32:27.711Z,99.90
2018-09-20T07:34:57.494Z,98.30
2018-09-20T07:37:27.382Z,95.80
2018-09-20T07:40:04.791Z,94.80
2018-09-20T07:42:44.822Z,93.00
2018-09-20T07:45:15.571Z,91.40
2018-09-20T07:48:16.798Z,90.80
2018-09-20T07:51:05.894Z,88.00
2018-09-20T07:59:40.399Z,84.90
2018-09-20T08:02:16.358Z,82.70
2018-09-20T08:04:48.099Z,80.50
2018-09-20T08:07:23.399Z,77.70
2018-09-20T08:09:57.498Z,74.70
2018-09-20T08:12:28.114Z,73.70
2018-09-20T08:15:03.830Z,74.00
2018-09-20T08:17:53.316Z,71.30
2018-09-20T08:20:28.502Z,71.30
2018-09-20T08:23:03.587Z,70.10
2018-09-20T08:25:53.018Z,69.20
2018-09-20T08:28:53.142Z,67.60
2018-09-20T08:31:27.734Z,65.90
2018-09-20T08:34:03.517Z,63.50
2018-09-20T08:36:40.730Z,63.40
2018-09-20T08:39:15.160Z,62.00
2018-09-20T08:41:57.919Z,61.00
2018-09-20T08:44:27.707Z,60.70
2018-09-20T08:47:17.030Z,60.70
2018-09-20T08:49:46.798Z,59.30
2018-09-20T08:52:26.994Z,58.70
2018-09-20T08:55:00.814Z,58.20
2018-09-20T08:57:43.634Z,56.30
2018-09-20T09:00:21.170Z,54.90
2018-09-20T09:02:51.057Z,55.20
2018-09-20T09:05:26.554Z,54.20
2018-09-20T09:08:00.694Z,54.00
2018-09-20T09:10:40.227Z,53.00
2018-09-20T09:13:09.986Z,53.40
2018-09-20T09:15:39.854Z,53.70
2018-09-20T09:18:09.917Z,52.40
2018-09-20T09:20:45.766Z,52.30
2018-09-20T09:23:17.146Z,52.30
2018-09-20T09:25:50.773Z,50.90
2018-09-20T09:28:27.705Z,49.90
2018-09-20T09:30:59.490Z,48.20
2018-09-20T09:33:29.357Z,47.60
2018-09-20T09:36:03.666Z,46.80
2018-09-20T09:38:33.506Z,46.60
2018-09-20T09:41:04.350Z,46.20
2018-09-20T09:43:35.202Z,45.80
2018-09-20T09:46:04.978Z,45.90
2018-09-20T09:48:34.831Z,45.10
2018-09-20T09:51:27.378Z,43.60
2018-09-20T09:54:05.182Z,43.30
2018-09-20T09:56:38.778Z,42.80
2018-09-20T09:59:09.526Z,43.10
2018-09-20T10:04:47.061Z,43.30
2018-09-20T10:07:26.499Z,42.30
2018-09-20T10:09:57.242Z,42.90
2018-09-20T10:12:28.038Z,42.60
2018-09-20T10:15:12.248Z,44.10
2018-09-20T10:17:41.974Z,43.30
2018-09-20T10:20:23.811Z,41.30
2018-09-20T10:22:53.586Z,42.40
2018-09-20T10:25:24.430Z,41.60
2018-09-20T10:27:54.254Z,38.10
2018-09-20T10:30:27.647Z,38.30
2018-09-20T10:36:05.570Z,36.90
2018-09-20T10:38:35.338Z,37.20
2018-09-20T10:41:11.174Z,37.00
2018-09-20T10:43:40.932Z,37.10
2018-09-20T10:46:26.698Z,36.80
2018-09-20T10:49:10.322Z,36.40
2018-09-20T10:51:40.747Z,36.40
2018-09-20T10:54:10.516Z,37.10
2018-09-20T10:56:40.343Z,38.00
2018-09-20T10:59:12.167Z,37.00
2018-09-20T11:01:43.031Z,38.10
2018-09-20T11:04:25.071Z,38.00
2018-09-20T11:06:54.923Z,37.00
2018-09-20T11:09:27.931Z,35.60
2018-09-20T11:11:59.104Z,36.60
2018-09-20T11:14:28.855Z,37.30
2018-09-20T11:17:02.791Z,38.20
2018-09-20T11:19:33.603Z,37.30
2018-09-20T11:22:05.711Z,37.70
2018-09-20T11:24:35.482Z,36.80
2018-09-20T11:27:08.530Z,37.50
2018-09-20T11:29:39.283Z,36.40
2018-09-20T11:32:15.203Z,34.70
2018-09-20T11:34:45.091Z,33.70
2018-09-20T11:37:19.663Z,32.90
2018-09-20T11:39:49.542Z,33.90
2018-09-20T11:42:23.226Z,33.00
2018-09-20T11:44:58.011Z,33.90
2018-09-20T11:47:29.806Z,33.60
2018-09-20T11:50:01.679Z,34.20
2018-09-20T11:52:33.518Z,35.40
2018-09-20T11:55:05.430Z,35.90
2018-09-20T11:57:39.802Z,36.70
2018-09-20T12:00:10.719Z,36.40
2018-09-20T12:02:41.251Z,36.30
2018-09-20T12:05:11.267Z,35.70
2018-09-20T12:07:49.442Z,38.10
2018-09-20T12:10:20.267Z,35.90
2018-09-20T12:13:02.482Z,35.20
2018-09-20T12:15:35.575Z,34.80
2018-09-20T12:18:07.342Z,34.00
2018-09-20T12:20:49.379Z,32.80
2018-09-20T12:23:23.402Z,32.90
2018-09-20T12:25:53.293Z,33.20
2018-09-20T12:28:28.102Z,33.50
2018-09-20T12:31:08.542Z,33.80
2018-09-20T12:33:38.410Z,34.20
2018-09-20T12:36:08.571Z,35.60
2018-09-20T12:38:42.720Z,34.00
2018-09-20T12:41:12.582Z,33.00
2018-09-20T12:43:43.359Z,32.10
2018-09-20T12:46:17.467Z,30.60
2018-09-20T12:48:47.334Z,29.80
2018-09-20T12:51:18.165Z,29.80
2018-09-20T12:53:53.594Z,29.90
2018-09-20T12:56:26.930Z,29.80
2018-09-20T12:59:01.782Z,29.80
2018-09-20T13:01:38.796Z,29.80
2018-09-20T13:04:08.608Z,29.80
2018-09-20T13:06:38.418Z,30.40
2018-09-20T13:09:09.949Z,30.40
2018-09-20T13:11:46.253Z,31.60
2018-09-20T13:14:16.029Z,31.80
2018-09-20T13:16:48.838Z,31.10
2018-09-20T13:19:19.654Z,31.50
2018-09-20T13:21:49.526Z,31.60
2018-09-20T13:24:21.370Z,31.40
2018-09-20T13:26:52.193Z,31.80
2018-09-20T13:29:22.986Z,31.50
2018-09-20T13:31:52.844Z,31.80
2018-09-20T13:34:23.657Z,31.40
2018-09-20T13:37:03.502Z,31.50
2018-09-20T13:43:21.314Z,32.40
2018-09-20T13:45:56.306Z,30.70
2018-09-20T13:48:26.126Z,30.20
2018-09-20T13:53:57.037Z,30.80
2018-09-20T13:56:27.990Z,30.50
2018-09-20T13:58:58.717Z,30.70
2018-09-20T14:01:28.471Z,30.60
2018-09-20T14:03:59.293Z,30.90
2018-09-20T14:06:29.073Z,31.10
2018-09-20T14:09:05.341Z,32.00
2018-09-20T14:11:36.105Z,31.70
2018-09-20T14:14:09.273Z,32.60
2018-09-20T14:16:43.917Z,35.30
2018-09-20T14:19:13.704Z,35.00
2018-09-20T14:21:45.557Z,33.70
2018-09-20T14:24:20.030Z,33.90
2018-09-20T14:26:49.946Z,34.50
2018-09-20T14:29:20.745Z,33.90
2018-09-20T14:31:51.560Z,33.90
2018-09-20T14:34:24.644Z,33.30
2018-09-20T14:36:56.408Z,34.20
2018-09-20T14:39:28.268Z,34.30
2018-09-20T14:41:58.048Z,34.00
2018-09-20T14:44:29.809Z,34.30
2018-09-20T14:47:05.477Z,34.50
2018-09-20T14:49:36.236Z,34.50
2018-09-20T14:52:07.125Z,34.60
2018-09-20T14:54:36.885Z,34.10
2018-09-20T14:57:08.717Z,35.00
2018-09-20T14:59:40.493Z,35.00
2018-09-20T15:02:10.348Z,35.00
2018-09-20T15:04:42.182Z,34.90
2018-09-20T15:07:14.031Z,35.50
2018-09-20T15:09:50.227Z,35.80
2018-09-20T15:12:21.229Z,35.80
2018-09-20T15:14:54.415Z,35.00
2018-09-20T15:17:25.250Z,34.80
2018-09-20T15:19:55.117Z,35.40
2018-09-20T15:22:25.902Z,34.90
2018-09-20T15:25:01.881Z,35.10
2018-09-20T15:27:35.549Z,35.30
2018-09-20T15:30:09.454Z,35.60
2018-09-20T15:32:43.559Z,35.90
2018-09-20T15:35:24.502Z,36.20
2018-09-20T15:37:56.342Z,36.70
2018-09-20T15:40:29.122Z,37.40
2018-09-20T15:42:59.906Z,37.70
2018-09-20T15:45:29.658Z,38.20
2018-09-20T15:48:03.590Z,38.40
2018-09-20T15:50:35.415Z,38.60
2018-09-20T15:53:07.338Z,38.80
2018-09-20T15:55:38.226Z,38.20
2018-09-20T15:58:09.098Z,38.50
2018-09-20T16:00:38.843Z,38.70
2018-09-20T16:03:08.754Z,39.20
2018-09-20T16:05:41.848Z,39.30
2018-09-20T16:08:11.694Z,39.00
2018-09-20T16:10:49.590Z,39.50
2018-09-20T16:13:29.754Z,39.50
2018-09-20T16:16:00.866Z,40.20
2018-09-20T16:18:31.026Z,40.50
2018-09-20T16:21:01.826Z,41.20
2018-09-20T16:23:32.826Z,41.50
2018-09-20T16:26:06.295Z,42.20
2018-09-20T16:29:57.794Z,42.80
2018-09-20T16:32:49.918Z,43.20
2018-09-20T16:36:03.890Z,44.00
2018-09-20T16:42:07.326Z,44.90
2018-09-20T16:44:37.209Z,45.70
2018-09-20T16:47:08.062Z,46.50
2018-09-20T16:49:37.838Z,47.60
2018-09-20T16:52:07.906Z,48.40
2018-09-20T16:54:39.962Z,49.30
2018-09-20T16:57:15.209Z,50.40
2018-09-20T16:59:46.018Z,51.50
2018-09-20T17:02:17.857Z,52.30
2018-09-20T17:04:47.674Z,53.20
2018-09-20T17:07:17.557Z,53.80
2018-09-20T17:09:47.394Z,54.30
2018-09-20T17:12:17.308Z,54.80
2018-09-20T17:14:47.174Z,55.10
2018-09-20T17:17:16.951Z,55.50
2018-09-20T17:19:46.774Z,55.60
2018-09-20T17:22:16.598Z,55.80
2018-09-20T17:24:46.894Z,56.00
2018-09-20T17:27:21.529Z,56.10
2018-09-20T17:29:52.394Z,56.20
2018-09-20T17:32:22.330Z,56.30
2018-09-20T17:34:53.484Z,56.60
2018-09-20T17:37:25.814Z,56.80
2018-09-20T17:39:59.030Z,57.00
2018-09-20T17:42:31.173Z,57.20
2018-09-20T17:45:12.542Z,57.50
2018-09-20T17:47:46.122Z,58.10
2018-09-20T17:50:17.006Z,58.70
2018-09-20T17:52:49.410Z,59.20
2018-09-20T17:55:20.862Z,59.50
2018-09-20T17:57:53.466Z,60.40
2018-09-20T18:00:24.826Z,61.00
2018-09-20T18:02:55.117Z,61.00
2018-09-20T18:05:25.986Z,61.20
2018-09-20T18:07:58.929Z,61.20
2018-09-20T18:10:29.782Z,61.40
2018-09-20T18:13:00.886Z,61.80
2018-09-20T18:15:30.724Z,62.50
2018-09-20T18:18:00.736Z,63.10
2018-09-20T18:20:30.364Z,63.90
2018-09-20T18:23:01.190Z,64.50
2018-09-20T18:25:35.126Z,65.90
2018-09-20T18:28:09.192Z,66.90
2018-09-20T18:30:41.037Z,67.80
2018-09-20T18:33:13.338Z,68.50
2018-09-20T18:35:43.153Z,69.00
2018-09-20T18:38:14.034Z,69.70
2018-09-20T18:40:43.953Z,70.50
2018-09-20T18:43:17.318Z,71.30
2018-09-20T18:45:49.166Z,72.20
2018-09-20T18:48:18.976Z,73.00
2018-09-20T18:50:49.837Z,73.80
2018-09-20T18:53:23.661Z,73.90
2018-09-20T18:55:53.419Z,74.70
2018-09-20T18:58:24.305Z,75.00
2018-09-20T19:00:55.129Z,75.30
2018-09-20T19:03:25.945Z,75.80
2018-09-20T19:06:00.097Z,75.80
2018-09-20T19:08:29.986Z,76.80
2018-09-20T19:11:01.885Z,76.10
2018-09-20T19:13:35.098Z,76.20
2018-09-20T19:16:04.882Z,76.20
2018-09-20T19:18:36.687Z,76.90
2018-09-20T19:21:07.619Z,76.90
2018-09-20T19:23:38.501Z,77.10
2018-09-20T19:26:09.317Z,79.60
2018-09-20T19:28:41.789Z,83.90
2018-09-20T19:31:11.566Z,87.70
2018-09-20T19:33:47.598Z,90.50
2018-09-20T19:36:23.298Z,92.40
2018-09-20T19:38:54.290Z,93.90
2018-09-20T19:41:25.094Z,95.50
2018-09-20T19:43:54.969Z,97.20
2018-09-20T19:46:24.790Z,98.30
2018-09-20T19:48:54.641Z,98.50
2018-09-20T19:51:25.410Z,97.30
2018-09-20T19:53:58.307Z,96.70
2018-09-20T19:56:28.185Z,96.40
2018-09-20T19:59:00.290Z,97.50
2018-09-20T20:01:30.101Z,98.50
2018-09-20T20:03:59.908Z,99.60
2018-09-20T20:06:29.744Z,99.90
2018-09-20T20:09:00.610Z,99.90
2018-09-20T20:11:30.412Z,99.90
2018-09-20T20:14:02.229Z,99.90
2018-09-20T20:16:32.040Z,99.90
2018-09-20T20:19:01.859Z,99.90
2018-09-20T20:21:31.684Z,99.90
2018-09-20T20:24:07.056Z,99.90
2018-09-20T20:26:36.932Z,99.90
2018-09-20T20:29:10.420Z,99.90
2018-09-20T20:31:40.264Z,99.90
2018-09-20T20:34:10.288Z,99.90
2018-09-20T20:36:41.094Z,99.90
2018-09-20T20:39:12.008Z,99.90
2018-09-20T20:41:41.864Z,99.90
2018-09-20T20:44:13.715Z,99.90
2018-09-20T20:46:46.611Z,99.90
2018-09-20T20:49:18.728Z,99.90
2018-09-20T20:51:53.816Z,99.90
2018-09-20T20:54:25.656Z,99.90
2018-09-20T20:56:56.496Z,99.90
2018-09-20T20:59:26.345Z,99.90
2018-09-20T21:02:00.088Z,99.90
2018-09-20T21:04:31.140Z,99.90
2018-09-20T21:07:03.022Z,99.90
2018-09-20T21:09:33.872Z,99.90
2018-09-20T21:12:03.764Z,99.90
2018-09-20T21:14:34.678Z,99.90
2018-09-20T21:17:04.524Z,99.90
2018-09-20T21:19:34.310Z,99.90
2018-09-20T21:22:04.144Z,99.90
2018-09-20T21:24:34.312Z,99.90
2018-09-20T21:27:04.199Z,99.90
2018-09-20T21:29:34.033Z,99.90
2018-09-20T21:32:04.825Z,99.90
2018-09-20T21:34:35.645Z,99.90
2018-09-20T21:37:06.413Z,99.90
2018-09-20T21:39:37.213Z,99.90
2018-09-20T21:42:07.047Z,99.90
2018-09-20T21:44:36.841Z,99.90
2018-09-20T21:47:10.641Z,99.90
2018-09-20T21:49:40.437Z,99.90
2018-09-20T21:52:11.358Z,99.90
2018-09-20T21:54:46.229Z,99.90
2018-09-20T21:57:17.618Z,99.90
2018-09-20T21:59:47.493Z,99.90
2018-09-20T22:02:23.690Z,99.90
2018-09-20T22:04:54.457Z,99.90
2018-09-20T22:07:25.325Z,99.90
2018-09-20T22:09:57.159Z,99.90
2018-09-20T22:12:27.013Z,99.90
2018-09-20T22:14:57.865Z,99.90
2018-09-20T22:17:29.578Z,99.90
2018-09-20T22:19:59.393Z,99.90
2018-09-20T22:22:30.261Z,99.90
2018-09-20T22:25:01.059Z,99.90
2018-09-20T22:27:30.911Z,99.90
2018-09-20T22:30:00.679Z,99.90
2018-09-20T22:32:30.517Z,99.90
2018-09-20T22:35:00.305Z,99.90
2018-09-20T22:37:30.109Z,99.90
2018-09-20T22:40:05.585Z,99.90
2018-09-20T22:42:36.393Z,99.90
2018-09-20T22:45:06.245Z,99.90
2018-09-20T22:47:38.080Z,99.90
2018-09-20T22:50:11.988Z,99.90
2018-09-20T22:52:43.817Z,99.90
2018-09-20T22:55:13.667Z,99.90
2018-09-20T22:57:44.477Z,99.90
2018-09-20T23:00:17.009Z,99.90
2018-09-20T23:02:48.925Z,99.90
2018-09-20T23:05:18.717Z,99.90
2018-09-20T23:07:55.025Z,99.90
2018-09-20T23:10:25.841Z,99.90
2018-09-20T23:12:55.685Z,99.90
2018-09-20T23:15:28.565Z,99.90
2018-09-20T23:17:58.441Z,99.90
2018-09-20T23:20:28.294Z,99.90
2018-09-20T23:22:58.206Z,99.90
2018-09-20T23:25:28.080Z,99.90
2018-09-20T23:27:59.009Z,99.90
2018-09-20T23:30:28.870Z,99.90
2018-09-20T23:32:58.737Z,99.90
2018-09-20T23:35:28.577Z,99.90
2018-09-20T23:37:59.393Z,99.90
2018-09-20T23:40:29.218Z,99.90
2018-09-20T23:43:00.049Z,99.90
2018-09-20T23:45:30.861Z,99.90
2018-09-20T23:48:02.741Z,99.90
2018-09-20T23:50:32.677Z,99.90
2018-09-20T23:53:03.505Z,99.90
2018-09-20T23:55:34.333Z,99.90
2018-09-20T23:58:05.183Z,99.90
